sensor_id;sensor_type;location;lat;lon;timestamp;temperature;humidity
19483;DHT22;9882;51.166;6.992;2022-12-07T00:01:44;4.70;99.90
19483;DHT22;9882;51.166;6.992;2022-12-07T00:04:15;4.70;99.90
19483;DHT22;9882;51.166;6.992;2022-12-07T00:06:45;4.70;99.90
19483;DHT22;9882;51.166;6.992;2022-12-07T00:09:16;4.70;99.90
19483;DHT22;9882;51.166;6.992;2022-12-07T00:11:46;4.70;99.90
19483;DHT22;9882;51.166;6.992;2022-12-07T00:14:18;4.70;99.90
19483;DHT22;9882;51.166;6.992;2022-12-07T00:16:49;4.70;99.90
19483;DHT22;9882;51.166;6.992;2022-12-07T00:19:18;4.70;99.90
19483;DHT22;9882;51.166;6.992;2022-12-07T00:21:47;4.70;99.90
19483;DHT22;9882;51.166;6.992;2022-12-07T00:24:15;4.80;99.90
19483;DHT22;9882;51.166;6.992;2022-12-07T00:26:44;4.70;99.90
19483;DHT22;9882;51.166;6.992;2022-12-07T00:29:17;4.80;99.90
19483;DHT22;9882;51.166;6.992;2022-12-07T00:31:46;4.80;99.90
19483;DHT22;9882;51.166;6.992;2022-12-07T00:34:16;4.80;99.90
19483;DHT22;9882;51.166;6.992;2022-12-07T00:39:29;4.80;99.90
19483;DHT22;9882;51.166;6.992;2022-12-07T00:41:58;4.80;99.90
19483;DHT22;9882;51.166;6.992;2022-12-07T00:44:28;4.80;99.90
19483;DHT22;9882;51.166;6.992;2022-12-07T00:46:56;4.80;99.90
19483;DHT22;9882;51.166;6.992;2022-12-07T00:49:25;4.80;99.90
19483;DHT22;9882;51.166;6.992;2022-12-07T00:51:53;4.80;99.90
19483;DHT22;9882;51.166;6.992;2022-12-07T00:54:21;4.80;99.90
19483;DHT22;9882;51.166;6.992;2022-12-07T00:56:50;4.80;99.90
19483;DHT22;9882;51.166;6.992;2022-12-07T00:59:18;4.80;99.90
19483;DHT22;9882;51.166;6.992;2022-12-07T01:01:48;4.70;99.90
19483;DHT22;9882;51.166;6.992;2022-12-07T01:04:17;4.80;99.90
19483;DHT22;9882;51.166;6.992;2022-12-07T01:06:45;4.80;99.90
19483;DHT22;9882;51.166;6.992;2022-12-07T01:09:14;4.80;99.90
19483;DHT22;9882;51.166;6.992;2022-12-07T01:11:42;4.80;99.90
19483;DHT22;9882;51.166;6.992;2022-12-07T01:14:11;4.80;99.90
19483;DHT22;9882;51.166;6.992;2022-12-07T01:16:39;4.70;99.90
19483;DHT22;9882;51.166;6.992;2022-12-07T01:19:09;4.80;99.90
19483;DHT22;9882;51.166;6.992;2022-12-07T01:21:38;4.80;99.90
19483;DHT22;9882;51.166;6.992;2022-12-07T01:24:09;4.70;99.90
19483;DHT22;9882;51.166;6.992;2022-12-07T01:26:38;4.70;99.90
19483;DHT22;9882;51.166;6.992;2022-12-07T01:29:07;4.70;99.90
19483;DHT22;9882;51.166;6.992;2022-12-07T01:31:35;4.70;99.90
19483;DHT22;9882;51.166;6.992;2022-12-07T01:34:04;4.70;99.90
19483;DHT22;9882;51.166;6.992;2022-12-07T01:36:35;4.70;99.90
19483;DHT22;9882;51.166;6.992;2022-12-07T01:39:06;4.70;99.90
19483;DHT22;9882;51.166;6.992;2022-12-07T01:41:36;4.70;99.90
19483;DHT22;9882;51.166;6.992;2022-12-07T01:44:19;4.80;99.90
19483;DHT22;9882;51.166;6.992;2022-12-07T01:46:49;4.70;99.90
19483;DHT22;9882;51.166;6.992;2022-12-07T01:49:23;4.70;99.90
19483;DHT22;9882;51.166;6.992;2022-12-07T01:51:58;4.80;99.90
19483;DHT22;9882;51.166;6.992;2022-12-07T01:54:28;4.70;99.90
19483;DHT22;9882;51.166;6.992;2022-12-07T01:56:57;4.70;99.90
19483;DHT22;9882;51.166;6.992;2022-12-07T01:59:26;4.80;99.90
19483;DHT22;9882;51.166;6.992;2022-12-07T02:01:55;4.80;99.90
19483;DHT22;9882;51.166;6.992;2022-12-07T02:04:24;4.80;99.90
19483;DHT22;9882;51.166;6.992;2022-12-07T02:06:54;4.70;99.90
19483;DHT22;9882;51.166;6.992;2022-12-07T02:09:23;4.70;99.90
19483;DHT22;9882;51.166;6.992;2022-12-07T02:11:53;4.80;99.90
19483;DHT22;9882;51.166;6.992;2022-12-07T02:14:22;4.80;99.90
19483;DHT22;9882;51.166;6.992;2022-12-07T02:17:06;4.80;99.90
19483;DHT22;9882;51.166;6.992;2022-12-07T02:20:21;4.80;99.90
19483;DHT22;9882;51.166;6.992;2022-12-07T02:23:23;4.90;99.90
19483;DHT22;9882;51.166;6.992;2022-12-07T02:26:10;4.80;99.90
19483;DHT22;9882;51.166;6.992;2022-12-07T02:29:00;4.90;99.90
19483;DHT22;9882;51.166;6.992;2022-12-07T02:31:40;4.90;99.90
19483;DHT22;9882;51.166;6.992;2022-12-07T02:34:18;4.90;99.90
19483;DHT22;9882;51.166;6.992;2022-12-07T02:36:53;4.80;99.90
19483;DHT22;9882;51.166;6.992;2022-12-07T02:39:30;4.80;99.90
19483;DHT22;9882;51.166;6.992;2022-12-07T02:42:05;4.80;99.90
19483;DHT22;9882;51.166;6.992;2022-12-07T02:44:37;4.90;99.90
19483;DHT22;9882;51.166;6.992;2022-12-07T02:47:10;4.80;99.90
19483;DHT22;9882;51.166;6.992;2022-12-07T02:49:40;4.70;99.90
19483;DHT22;9882;51.166;6.992;2022-12-07T02:52:10;4.70;99.90
19483;DHT22;9882;51.166;6.992;2022-12-07T02:54:39;4.70;99.90
19483;DHT22;9882;51.166;6.992;2022-12-07T02:57:21;4.70;99.90
19483;DHT22;9882;51.166;6.992;2022-12-07T03:00:00;4.70;99.90
19483;DHT22;9882;51.166;6.992;2022-12-07T03:02:38;4.70;99.90
19483;DHT22;9882;51.166;6.992;2022-12-07T03:05:27;4.70;99.90
19483;DHT22;9882;51.166;6.992;2022-12-07T03:08:02;4.70;99.90
19483;DHT22;9882;51.166;6.992;2022-12-07T03:10:39;4.70;99.90
19483;DHT22;9882;51.166;6.992;2022-12-07T03:13:18;4.70;99.90
19483;DHT22;9882;51.166;6.992;2022-12-07T03:15:55;4.70;99.90
19483;DHT22;9882;51.166;6.992;2022-12-07T03:18:30;4.70;99.90
19483;DHT22;9882;51.166;6.992;2022-12-07T03:21:04;4.70;99.90
19483;DHT22;9882;51.166;6.992;2022-12-07T03:23:51;4.70;99.90
19483;DHT22;9882;51.166;6.992;2022-12-07T03:26:36;4.70;99.90
19483;DHT22;9882;51.166;6.992;2022-12-07T03:29:09;4.70;99.90
19483;DHT22;9882;51.166;6.992;2022-12-07T03:31:44;4.60;99.90
19483;DHT22;9882;51.166;6.992;2022-12-07T03:34:19;4.70;99.90
19483;DHT22;9882;51.166;6.992;2022-12-07T03:36:54;4.70;99.90
19483;DHT22;9882;51.166;6.992;2022-12-07T03:39:33;4.70;99.90
19483;DHT22;9882;51.166;6.992;2022-12-07T03:42:26;4.70;99.90
19483;DHT22;9882;51.166;6.992;2022-12-07T03:44:55;4.70;99.90
19483;DHT22;9882;51.166;6.992;2022-12-07T03:47:29;4.80;99.90
19483;DHT22;9882;51.166;6.992;2022-12-07T03:50:24;4.80;99.90
19483;DHT22;9882;51.166;6.992;2022-12-07T03:53:18;4.80;99.90
19483;DHT22;9882;51.166;6.992;2022-12-07T03:55:59;4.60;99.90
19483;DHT22;9882;51.166;6.992;2022-12-07T03:58:30;4.70;99.90
19483;DHT22;9882;51.166;6.992;2022-12-07T04:01:00;4.60;99.90
19483;DHT22;9882;51.166;6.992;2022-12-07T04:03:52;4.70;99.90
19483;DHT22;9882;51.166;6.992;2022-12-07T04:07:31;4.60;99.90
19483;DHT22;9882;51.166;6.992;2022-12-07T04:10:08;4.60;99.90
19483;DHT22;9882;51.166;6.992;2022-12-07T04:12:43;4.60;99.90
19483;DHT22;9882;51.166;6.992;2022-12-07T04:15:39;4.60;99.90
19483;DHT22;9882;51.166;6.992;2022-12-07T04:21:55;4.60;99.90
19483;DHT22;9882;51.166;6.992;2022-12-07T04:24:24;4.60;99.90
19483;DHT22;9882;51.166;6.992;2022-12-07T04:26:53;4.60;99.90
19483;DHT22;9882;51.166;6.992;2022-12-07T04:29:24;4.60;99.90
19483;DHT22;9882;51.166;6.992;2022-12-07T04:31:54;4.50;99.90
19483;DHT22;9882;51.166;6.992;2022-12-07T04:34:52;4.50;99.90
19483;DHT22;9882;51.166;6.992;2022-12-07T04:37:28;4.50;99.90
19483;DHT22;9882;51.166;6.992;2022-12-07T04:39:57;4.40;99.90
19483;DHT22;9882;51.166;6.992;2022-12-07T04:42:26;4.50;99.90
19483;DHT22;9882;51.166;6.992;2022-12-07T04:44:56;4.50;99.90
19483;DHT22;9882;51.166;6.992;2022-12-07T04:47:25;4.50;99.90
19483;DHT22;9882;51.166;6.992;2022-12-07T04:49:55;4.50;99.90
19483;DHT22;9882;51.166;6.992;2022-12-07T04:52:36;4.50;99.90
19483;DHT22;9882;51.166;6.992;2022-12-07T04:55:07;4.60;99.90
19483;DHT22;9882;51.166;6.992;2022-12-07T04:57:37;4.50;99.90
19483;DHT22;9882;51.166;6.992;2022-12-07T05:00:14;4.60;99.90
19483;DHT22;9882;51.166;6.992;2022-12-07T05:03:00;4.50;99.90
19483;DHT22;9882;51.166;6.992;2022-12-07T05:05:29;4.50;99.90
19483;DHT22;9882;51.166;6.992;2022-12-07T05:08:00;4.50;99.90
19483;DHT22;9882;51.166;6.992;2022-12-07T05:10:29;4.50;99.90
19483;DHT22;9882;51.166;6.992;2022-12-07T05:13:12;4.50;99.90
19483;DHT22;9882;51.166;6.992;2022-12-07T05:15:44;4.50;99.90
19483;DHT22;9882;51.166;6.992;2022-12-07T05:18:20;4.60;99.90
19483;DHT22;9882;51.166;6.992;2022-12-07T05:20:55;4.60;99.90
19483;DHT22;9882;51.166;6.992;2022-12-07T05:30:46;4.70;99.90
19483;DHT22;9882;51.166;6.992;2022-12-07T05:33:15;4.60;99.90
19483;DHT22;9882;51.166;6.992;2022-12-07T05:35:44;4.60;99.90
19483;DHT22;9882;51.166;6.992;2022-12-07T05:38:14;4.50;99.90
19483;DHT22;9882;51.166;6.992;2022-12-07T05:41:19;4.50;99.90
19483;DHT22;9882;51.166;6.992;2022-12-07T05:44:06;4.50;99.90
19483;DHT22;9882;51.166;6.992;2022-12-07T05:46:41;4.50;99.90
19483;DHT22;9882;51.166;6.992;2022-12-07T05:49:11;4.40;99.90
19483;DHT22;9882;51.166;6.992;2022-12-07T05:51:40;4.40;99.90
19483;DHT22;9882;51.166;6.992;2022-12-07T05:54:10;4.40;99.90
19483;DHT22;9882;51.166;6.992;2022-12-07T05:56:40;4.40;99.90
19483;DHT22;9882;51.166;6.992;2022-12-07T05:59:09;4.40;99.90
19483;DHT22;9882;51.166;6.992;2022-12-07T06:01:57;4.50;99.90
19483;DHT22;9882;51.166;6.992;2022-12-07T06:04:28;4.40;99.90
19483;DHT22;9882;51.166;6.992;2022-12-07T06:06:58;4.40;99.90
19483;DHT22;9882;51.166;6.992;2022-12-07T06:09:28;4.40;99.90
19483;DHT22;9882;51.166;6.992;2022-12-07T06:12:22;4.40;99.90
19483;DHT22;9882;51.166;6.992;2022-12-07T06:15:06;4.30;99.90
19483;DHT22;9882;51.166;6.992;2022-12-07T06:17:41;4.30;99.90
19483;DHT22;9882;51.166;6.992;2022-12-07T06:21:45;4.30;99.90
19483;DHT22;9882;51.166;6.992;2022-12-07T06:24:15;4.40;99.90
19483;DHT22;9882;51.166;6.992;2022-12-07T06:26:45;4.40;99.90
19483;DHT22;9882;51.166;6.992;2022-12-07T06:29:17;4.60;99.90
19483;DHT22;9882;51.166;6.992;2022-12-07T06:31:48;4.50;99.90
19483;DHT22;9882;51.166;6.992;2022-12-07T06:35:55;4.40;99.90
19483;DHT22;9882;51.166;6.992;2022-12-07T06:38:24;4.60;99.90
19483;DHT22;9882;51.166;6.992;2022-12-07T06:40:54;4.50;99.90
19483;DHT22;9882;51.166;6.992;2022-12-07T06:43:24;4.50;99.90
19483;DHT22;9882;51.166;6.992;2022-12-07T06:50:33;4.60;99.90
19483;DHT22;9882;51.166;6.992;2022-12-07T06:53:04;4.80;99.90
19483;DHT22;9882;51.166;6.992;2022-12-07T06:55:34;4.90;99.90
19483;DHT22;9882;51.166;6.992;2022-12-07T06:58:02;5.00;99.90
19483;DHT22;9882;51.166;6.992;2022-12-07T07:00:38;4.80;99.90
19483;DHT22;9882;51.166;6.992;2022-12-07T07:03:11;4.60;99.90
19483;DHT22;9882;51.166;6.992;2022-12-07T07:05:55;4.60;99.90
19483;DHT22;9882;51.166;6.992;2022-12-07T07:08:26;4.70;99.90
19483;DHT22;9882;51.166;6.992;2022-12-07T07:10:56;4.90;99.90
19483;DHT22;9882;51.166;6.992;2022-12-07T07:13:25;4.90;99.90
19483;DHT22;9882;51.166;6.992;2022-12-07T07:15:55;4.70;99.90
19483;DHT22;9882;51.166;6.992;2022-12-07T07:18:25;4.70;99.90
19483;DHT22;9882;51.166;6.992;2022-12-07T07:20:58;4.80;99.90
19483;DHT22;9882;51.166;6.992;2022-12-07T07:23:30;4.90;99.90
19483;DHT22;9882;51.166;6.992;2022-12-07T07:26:00;4.70;99.90
19483;DHT22;9882;51.166;6.992;2022-12-07T07:28:29;4.90;99.90
19483;DHT22;9882;51.166;6.992;2022-12-07T07:30:58;4.90;99.90
19483;DHT22;9882;51.166;6.992;2022-12-07T07:33:27;4.70;99.90
19483;DHT22;9882;51.166;6.992;2022-12-07T07:35:57;4.60;99.90
19483;DHT22;9882;51.166;6.992;2022-12-07T07:38:26;4.50;99.90
19483;DHT22;9882;51.166;6.992;2022-12-07T07:40:57;4.70;99.90
19483;DHT22;9882;51.166;6.992;2022-12-07T07:43:26;4.80;99.90
19483;DHT22;9882;51.166;6.992;2022-12-07T07:45:55;4.80;99.90
19483;DHT22;9882;51.166;6.992;2022-12-07T07:48:25;4.70;99.90
19483;DHT22;9882;51.166;6.992;2022-12-07T07:50:55;4.60;99.90
19483;DHT22;9882;51.166;6.992;2022-12-07T07:53:24;4.60;99.90
19483;DHT22;9882;51.166;6.992;2022-12-07T07:55:54;4.70;99.90
19483;DHT22;9882;51.166;6.992;2022-12-07T07:58:25;4.80;99.90
19483;DHT22;9882;51.166;6.992;2022-12-07T08:00:54;4.80;99.90
19483;DHT22;9882;51.166;6.992;2022-12-07T08:03:24;4.90;99.90
19483;DHT22;9882;51.166;6.992;2022-12-07T08:05:54;5.00;99.90
19483;DHT22;9882;51.166;6.992;2022-12-07T08:08:23;5.10;99.90
19483;DHT22;9882;51.166;6.992;2022-12-07T08:10:53;5.10;99.90
19483;DHT22;9882;51.166;6.992;2022-12-07T08:13:22;5.10;99.90
19483;DHT22;9882;51.166;6.992;2022-12-07T08:15:57;5.00;99.90
19483;DHT22;9882;51.166;6.992;2022-12-07T08:18:26;5.10;99.90
19483;DHT22;9882;51.166;6.992;2022-12-07T08:20:59;5.20;99.90
19483;DHT22;9882;51.166;6.992;2022-12-07T08:23:29;5.20;99.90
19483;DHT22;9882;51.166;6.992;2022-12-07T08:26:05;5.20;99.90
19483;DHT22;9882;51.166;6.992;2022-12-07T08:28:34;5.20;99.90
19483;DHT22;9882;51.166;6.992;2022-12-07T08:31:07;5.20;99.90
19483;DHT22;9882;51.166;6.992;2022-12-07T08:33:37;5.20;99.90
19483;DHT22;9882;51.166;6.992;2022-12-07T08:36:09;5.00;99.90
19483;DHT22;9882;51.166;6.992;2022-12-07T08:38:40;5.00;99.90
19483;DHT22;9882;51.166;6.992;2022-12-07T08:41:18;5.00;99.90
19483;DHT22;9882;51.166;6.992;2022-12-07T08:43:47;4.90;99.90
19483;DHT22;9882;51.166;6.992;2022-12-07T08:46:21;4.70;99.90
19483;DHT22;9882;51.166;6.992;2022-12-07T08:48:54;4.60;99.90
19483;DHT22;9882;51.166;6.992;2022-12-07T08:51:25;4.50;99.90
19483;DHT22;9882;51.166;6.992;2022-12-07T08:53:55;4.50;99.90
19483;DHT22;9882;51.166;6.992;2022-12-07T08:56:27;4.60;99.90
19483;DHT22;9882;51.166;6.992;2022-12-07T08:58:57;4.50;99.90
19483;DHT22;9882;51.166;6.992;2022-12-07T09:01:28;4.50;99.90
19483;DHT22;9882;51.166;6.992;2022-12-07T09:03:58;4.50;99.90
19483;DHT22;9882;51.166;6.992;2022-12-07T09:06:28;4.50;99.90
19483;DHT22;9882;51.166;6.992;2022-12-07T09:08:59;4.50;99.90
19483;DHT22;9882;51.166;6.992;2022-12-07T09:11:29;4.50;99.90
19483;DHT22;9882;51.166;6.992;2022-12-07T09:13:59;4.60;99.90
19483;DHT22;9882;51.166;6.992;2022-12-07T09:16:29;4.60;99.90
19483;DHT22;9882;51.166;6.992;2022-12-07T09:18:59;4.60;99.90
19483;DHT22;9882;51.166;6.992;2022-12-07T09:21:28;4.60;99.90
19483;DHT22;9882;51.166;6.992;2022-12-07T09:23:57;4.70;99.90
19483;DHT22;9882;51.166;6.992;2022-12-07T09:26:26;4.70;99.90
19483;DHT22;9882;51.166;6.992;2022-12-07T09:28:56;4.70;99.90
19483;DHT22;9882;51.166;6.992;2022-12-07T09:31:25;4.80;99.90
19483;DHT22;9882;51.166;6.992;2022-12-07T09:33:57;4.60;99.90
19483;DHT22;9882;51.166;6.992;2022-12-07T09:36:27;4.70;99.90
19483;DHT22;9882;51.166;6.992;2022-12-07T09:38:57;4.80;99.90
19483;DHT22;9882;51.166;6.992;2022-12-07T09:41:27;4.70;99.90
19483;DHT22;9882;51.166;6.992;2022-12-07T09:44:04;4.70;99.90
19483;DHT22;9882;51.166;6.992;2022-12-07T09:46:36;4.70;99.90
19483;DHT22;9882;51.166;6.992;2022-12-07T09:49:11;4.70;99.90
19483;DHT22;9882;51.166;6.992;2022-12-07T09:51:40;4.70;99.90
19483;DHT22;9882;51.166;6.992;2022-12-07T09:54:12;4.80;99.90
19483;DHT22;9882;51.166;6.992;2022-12-07T09:56:42;4.80;99.90
19483;DHT22;9882;51.166;6.992;2022-12-07T09:59:17;4.80;99.90
19483;DHT22;9882;51.166;6.992;2022-12-07T10:01:48;4.80;99.90
19483;DHT22;9882;51.166;6.992;2022-12-07T10:04:22;4.80;99.90
19483;DHT22;9882;51.166;6.992;2022-12-07T10:06:52;4.80;99.90
19483;DHT22;9882;51.166;6.992;2022-12-07T10:09:22;4.90;99.90
19483;DHT22;9882;51.166;6.992;2022-12-07T10:12:04;4.80;99.90
19483;DHT22;9882;51.166;6.992;2022-12-07T10:14:36;4.80;99.90
19483;DHT22;9882;51.166;6.992;2022-12-07T10:17:32;4.90;99.90
19483;DHT22;9882;51.166;6.992;2022-12-07T10:20:15;5.00;99.90
19483;DHT22;9882;51.166;6.992;2022-12-07T10:23:04;4.90;99.90
19483;DHT22;9882;51.166;6.992;2022-12-07T10:25:35;5.00;99.90
19483;DHT22;9882;51.166;6.992;2022-12-07T10:28:15;5.00;99.90
19483;DHT22;9882;51.166;6.992;2022-12-07T10:30:54;5.00;99.90
19483;DHT22;9882;51.166;6.992;2022-12-07T10:33:32;5.00;99.90
19483;DHT22;9882;51.166;6.992;2022-12-07T10:36:17;5.10;99.90
19483;DHT22;9882;51.166;6.992;2022-12-07T10:38:48;5.10;99.90
19483;DHT22;9882;51.166;6.992;2022-12-07T10:41:18;5.10;99.90
19483;DHT22;9882;51.166;6.992;2022-12-07T10:43:52;5.20;99.90
19483;DHT22;9882;51.166;6.992;2022-12-07T10:52:34;5.10;99.90
19483;DHT22;9882;51.166;6.992;2022-12-07T10:55:16;5.20;99.90
19483;DHT22;9882;51.166;6.992;2022-12-07T10:58:06;5.20;99.90
19483;DHT22;9882;51.166;6.992;2022-12-07T11:00:41;5.30;99.90
19483;DHT22;9882;51.166;6.992;2022-12-07T11:03:30;5.30;99.90
19483;DHT22;9882;51.166;6.992;2022-12-07T11:06:10;5.30;99.90
19483;DHT22;9882;51.166;6.992;2022-12-07T11:09:04;5.40;99.90
19483;DHT22;9882;51.166;6.992;2022-12-07T11:11:43;5.40;99.90
19483;DHT22;9882;51.166;6.992;2022-12-07T11:14:20;5.30;99.90
19483;DHT22;9882;51.166;6.992;2022-12-07T11:16:56;5.40;99.90
19483;DHT22;9882;51.166;6.992;2022-12-07T11:19:39;5.30;99.90
19483;DHT22;9882;51.166;6.992;2022-12-07T11:22:25;5.30;99.90
19483;DHT22;9882;51.166;6.992;2022-12-07T11:25:02;5.30;99.90
19483;DHT22;9882;51.166;6.992;2022-12-07T11:27:44;5.30;99.90
19483;DHT22;9882;51.166;6.992;2022-12-07T11:30:19;5.30;99.90
19483;DHT22;9882;51.166;6.992;2022-12-07T11:33:06;5.40;99.90
19483;DHT22;9882;51.166;6.992;2022-12-07T11:35:50;5.50;99.90
19483;DHT22;9882;51.166;6.992;2022-12-07T11:38:24;5.40;99.90
19483;DHT22;9882;51.166;6.992;2022-12-07T11:41:00;5.40;99.90
19483;DHT22;9882;51.166;6.992;2022-12-07T11:43:53;5.40;99.90
19483;DHT22;9882;51.166;6.992;2022-12-07T11:46:25;5.50;99.90
19483;DHT22;9882;51.166;6.992;2022-12-07T11:49:02;5.60;99.90
19483;DHT22;9882;51.166;6.992;2022-12-07T11:51:35;5.60;99.90
19483;DHT22;9882;51.166;6.992;2022-12-07T11:54:12;5.70;99.90
19483;DHT22;9882;51.166;6.992;2022-12-07T11:56:46;5.60;99.90
19483;DHT22;9882;51.166;6.992;2022-12-07T11:59:22;5.70;99.90
19483;DHT22;9882;51.166;6.992;2022-12-07T12:01:55;5.80;99.90
19483;DHT22;9882;51.166;6.992;2022-12-07T12:04:34;5.90;99.90
19483;DHT22;9882;51.166;6.992;2022-12-07T12:07:14;5.70;99.90
19483;DHT22;9882;51.166;6.992;2022-12-07T12:10:13;5.80;99.90
19483;DHT22;9882;51.166;6.992;2022-12-07T12:13:20;5.80;99.90
19483;DHT22;9882;51.166;6.992;2022-12-07T12:16:25;5.80;99.90
19483;DHT22;9882;51.166;6.992;2022-12-07T12:19:15;5.90;99.90
19483;DHT22;9882;51.166;6.992;2022-12-07T12:21:48;5.90;99.90
19483;DHT22;9882;51.166;6.992;2022-12-07T12:24:23;5.90;99.90
19483;DHT22;9882;51.166;6.992;2022-12-07T12:26:57;5.90;99.90
19483;DHT22;9882;51.166;6.992;2022-12-07T12:29:33;5.90;99.90
19483;DHT22;9882;51.166;6.992;2022-12-07T12:32:12;5.90;99.90
19483;DHT22;9882;51.166;6.992;2022-12-07T12:34:59;5.90;99.90
19483;DHT22;9882;51.166;6.992;2022-12-07T12:37:45;5.90;99.90
19483;DHT22;9882;51.166;6.992;2022-12-07T12:40:40;5.90;99.90
19483;DHT22;9882;51.166;6.992;2022-12-07T12:43:50;5.90;99.90
19483;DHT22;9882;51.166;6.992;2022-12-07T12:46:47;5.90;99.90
19483;DHT22;9882;51.166;6.992;2022-12-07T12:56:11;6.00;99.90
19483;DHT22;9882;51.166;6.992;2022-12-07T12:58:44;6.00;99.90
19483;DHT22;9882;51.166;6.992;2022-12-07T13:01:46;6.00;99.90
19483;DHT22;9882;51.166;6.992;2022-12-07T13:07:48;6.00;99.90
19483;DHT22;9882;51.166;6.992;2022-12-07T13:10:34;6.00;99.90
19483;DHT22;9882;51.166;6.992;2022-12-07T13:15:51;6.00;99.90
19483;DHT22;9882;51.166;6.992;2022-12-07T13:18:35;5.90;99.90
19483;DHT22;9882;51.166;6.992;2022-12-07T13:21:42;6.00;99.90
19483;DHT22;9882;51.166;6.992;2022-12-07T13:24:13;6.00;99.90
19483;DHT22;9882;51.166;6.992;2022-12-07T13:27:35;5.90;99.90
19483;DHT22;9882;51.166;6.992;2022-12-07T13:30:14;5.90;99.90
19483;DHT22;9882;51.166;6.992;2022-12-07T13:32:55;5.90;99.90
19483;DHT22;9882;51.166;6.992;2022-12-07T13:38:23;5.90;99.90
19483;DHT22;9882;51.166;6.992;2022-12-07T13:41:16;5.90;99.90
19483;DHT22;9882;51.166;6.992;2022-12-07T13:44:17;5.80;99.90
19483;DHT22;9882;51.166;6.992;2022-12-07T13:47:01;5.80;99.90
19483;DHT22;9882;51.166;6.992;2022-12-07T13:49:55;5.80;99.90
19483;DHT22;9882;51.166;6.992;2022-12-07T13:52:43;5.80;99.90
19483;DHT22;9882;51.166;6.992;2022-12-07T13:55:15;5.80;99.90
19483;DHT22;9882;51.166;6.992;2022-12-07T13:57:51;5.80;99.90
19483;DHT22;9882;51.166;6.992;2022-12-07T14:00:26;5.80;99.90
19483;DHT22;9882;51.166;6.992;2022-12-07T14:03:27;5.90;99.90
19483;DHT22;9882;51.166;6.992;2022-12-07T14:06:22;5.90;99.90
19483;DHT22;9882;51.166;6.992;2022-12-07T14:09:30;5.90;99.90
19483;DHT22;9882;51.166;6.992;2022-12-07T14:12:19;5.90;99.90
19483;DHT22;9882;51.166;6.992;2022-12-07T14:14:51;5.90;99.90
19483;DHT22;9882;51.166;6.992;2022-12-07T14:17:27;5.90;99.90
19483;DHT22;9882;51.166;6.992;2022-12-07T14:19:57;6.00;99.90
19483;DHT22;9882;51.166;6.992;2022-12-07T14:22:30;6.00;99.90
19483;DHT22;9882;51.166;6.992;2022-12-07T14:25:18;6.00;99.90
19483;DHT22;9882;51.166;6.992;2022-12-07T14:27:51;5.90;99.90
19483;DHT22;9882;51.166;6.992;2022-12-07T14:30:27;5.90;99.90
19483;DHT22;9882;51.166;6.992;2022-12-07T14:32:59;5.80;99.90
19483;DHT22;9882;51.166;6.992;2022-12-07T14:35:30;5.80;99.90
19483;DHT22;9882;51.166;6.992;2022-12-07T14:37:59;5.80;99.90
19483;DHT22;9882;51.166;6.992;2022-12-07T14:40:30;5.90;99.90
19483;DHT22;9882;51.166;6.992;2022-12-07T14:43:02;5.80;99.90
19483;DHT22;9882;51.166;6.992;2022-12-07T14:45:32;5.90;99.90
19483;DHT22;9882;51.166;6.992;2022-12-07T14:48:02;5.80;99.90
19483;DHT22;9882;51.166;6.992;2022-12-07T14:50:52;5.80;99.90
19483;DHT22;9882;51.166;6.992;2022-12-07T14:53:44;5.90;99.90
19483;DHT22;9882;51.166;6.992;2022-12-07T14:56:17;5.90;99.90
19483;DHT22;9882;51.166;6.992;2022-12-07T14:58:46;5.80;99.90
19483;DHT22;9882;51.166;6.992;2022-12-07T15:01:16;5.90;99.90
19483;DHT22;9882;51.166;6.992;2022-12-07T15:03:45;5.80;99.90
19483;DHT22;9882;51.166;6.992;2022-12-07T15:06:17;5.80;99.90
19483;DHT22;9882;51.166;6.992;2022-12-07T15:08:47;5.90;99.90
19483;DHT22;9882;51.166;6.992;2022-12-07T15:11:18;5.80;99.90
19483;DHT22;9882;51.166;6.992;2022-12-07T15:13:47;5.90;99.90
19483;DHT22;9882;51.166;6.992;2022-12-07T15:16:35;5.90;99.90
19483;DHT22;9882;51.166;6.992;2022-12-07T15:19:21;5.70;99.90
19483;DHT22;9882;51.166;6.992;2022-12-07T15:21:54;5.60;99.90
19483;DHT22;9882;51.166;6.992;2022-12-07T15:24:24;5.70;99.90
19483;DHT22;9882;51.166;6.992;2022-12-07T15:26:54;5.70;99.90
19483;DHT22;9882;51.166;6.992;2022-12-07T15:29:24;5.70;99.90
19483;DHT22;9882;51.166;6.992;2022-12-07T15:31:53;5.70;99.90
19483;DHT22;9882;51.166;6.992;2022-12-07T15:34:24;5.60;99.90
19483;DHT22;9882;51.166;6.992;2022-12-07T15:36:58;5.50;99.90
19483;DHT22;9882;51.166;6.992;2022-12-07T15:39:28;5.70;99.90
19483;DHT22;9882;51.166;6.992;2022-12-07T15:41:59;5.80;99.90
19483;DHT22;9882;51.166;6.992;2022-12-07T15:44:28;5.90;99.90
19483;DHT22;9882;51.166;6.992;2022-12-07T15:47:16;6.00;99.90
19483;DHT22;9882;51.166;6.992;2022-12-07T15:49:45;6.10;99.90
19483;DHT22;9882;51.166;6.992;2022-12-07T15:52:15;6.10;99.90
19483;DHT22;9882;51.166;6.992;2022-12-07T15:54:45;5.80;99.90
19483;DHT22;9882;51.166;6.992;2022-12-07T15:57:16;5.80;99.90
19483;DHT22;9882;51.166;6.992;2022-12-07T15:59:48;5.50;99.90
19483;DHT22;9882;51.166;6.992;2022-12-07T16:02:17;5.50;99.90
19483;DHT22;9882;51.166;6.992;2022-12-07T16:04:47;5.50;99.90
19483;DHT22;9882;51.166;6.992;2022-12-07T16:07:16;5.50;99.90
19483;DHT22;9882;51.166;6.992;2022-12-07T16:09:46;5.40;99.90
19483;DHT22;9882;51.166;6.992;2022-12-07T16:12:18;5.50;99.90
19483;DHT22;9882;51.166;6.992;2022-12-07T16:14:48;5.40;99.90
19483;DHT22;9882;51.166;6.992;2022-12-07T16:17:17;5.40;99.90
19483;DHT22;9882;51.166;6.992;2022-12-07T16:19:46;5.30;99.90
19483;DHT22;9882;51.166;6.992;2022-12-07T16:22:16;5.40;99.90
19483;DHT22;9882;51.166;6.992;2022-12-07T16:24:45;5.40;99.90
19483;DHT22;9882;51.166;6.992;2022-12-07T16:27:15;5.20;99.90
19483;DHT22;9882;51.166;6.992;2022-12-07T16:33:29;5.00;99.90
19483;DHT22;9882;51.166;6.992;2022-12-07T16:36:10;5.00;99.90
19483;DHT22;9882;51.166;6.992;2022-12-07T16:38:41;5.10;99.90
19483;DHT22;9882;51.166;6.992;2022-12-07T16:41:12;5.20;99.90
19483;DHT22;9882;51.166;6.992;2022-12-07T16:43:41;5.10;99.90
19483;DHT22;9882;51.166;6.992;2022-12-07T16:46:11;5.10;99.90
19483;DHT22;9882;51.166;6.992;2022-12-07T16:48:42;5.00;99.90
19483;DHT22;9882;51.166;6.992;2022-12-07T16:51:13;5.00;99.90
19483;DHT22;9882;51.166;6.992;2022-12-07T16:53:43;5.10;99.90
19483;DHT22;9882;51.166;6.992;2022-12-07T16:56:14;5.10;99.90
19483;DHT22;9882;51.166;6.992;2022-12-07T16:58:44;5.10;99.90
19483;DHT22;9882;51.166;6.992;2022-12-07T17:01:15;5.10;99.90
19483;DHT22;9882;51.166;6.992;2022-12-07T17:03:47;5.10;99.90
19483;DHT22;9882;51.166;6.992;2022-12-07T17:06:18;5.00;99.90
19483;DHT22;9882;51.166;6.992;2022-12-07T17:08:48;4.90;99.90
19483;DHT22;9882;51.166;6.992;2022-12-07T17:11:19;5.10;99.90
19483;DHT22;9882;51.166;6.992;2022-12-07T17:13:49;5.20;99.90
19483;DHT22;9882;51.166;6.992;2022-12-07T17:16:36;5.20;99.90
19483;DHT22;9882;51.166;6.992;2022-12-07T17:19:08;4.90;99.90
19483;DHT22;9882;51.166;6.992;2022-12-07T17:21:38;4.90;99.90
19483;DHT22;9882;51.166;6.992;2022-12-07T17:24:09;4.90;99.90
19483;DHT22;9882;51.166;6.992;2022-12-07T17:26:39;5.10;99.90
19483;DHT22;9882;51.166;6.992;2022-12-07T17:29:11;5.20;99.90
19483;DHT22;9882;51.166;6.992;2022-12-07T17:31:41;5.30;99.90
19483;DHT22;9882;51.166;6.992;2022-12-07T17:34:16;5.40;99.90
19483;DHT22;9882;51.166;6.992;2022-12-07T17:36:46;5.30;99.90
19483;DHT22;9882;51.166;6.992;2022-12-07T17:39:16;5.20;99.90
19483;DHT22;9882;51.166;6.992;2022-12-07T17:41:46;5.10;99.90